Time;durP1;ratioP1;P1;durP2;ratioP2;P2;SDS_P1;SDS_P2;PMS_P1;PMS_P2;Temp;Humidity;BMP_temperature;BMP_pressure;BME280_temperature;BME280_humidity;BME280_pressure;Samples;Min_cycle;Max_cycle;Signal;HPM_P1;HPM_P2
2021/06/13 00:00:44;;;;;;;7.40;3.95;;;;;;;;;;5072008;28;20052;-71
2021/06/13 00:03:10;;;;;;;4.93;3.85;;;;;;;;;;5072436;28;20029;-71
2021/06/13 00:05:36;;;;;;;6.80;4.07;;;;;;;;;;5072254;28;20020;-71
2021/06/13 00:08:03;;;;;;;7.07;4.38;;;;;;;;;;5072285;28;20037;-71
2021/06/13 00:10:29;;;;;;;5.18;4.18;;;;;;;;;;5071802;28;20025;-72
2021/06/13 00:12:55;;;;;;;7.10;4.63;;;;;;;;;;5072279;28;20033;-71
2021/06/13 00:15:23;;;;;;;6.43;4.20;;;;;;;;;;5072008;28;20107;-71
2021/06/13 00:17:50;;;;;;;5.95;4.75;;;;;;;;;;5072112;28;20047;-71
2021/06/13 00:20:18;;;;;;;5.32;4.45;;;;;;;;;;5074318;28;20647;-72
2021/06/13 00:22:44;;;;;;;4.97;4.13;;;;;;;;;;5075975;28;20024;-71
2021/06/13 00:25:10;;;;;;;5.68;4.40;;;;;;;;;;5075764;28;20032;-71
2021/06/13 00:27:36;;;;;;;6.18;4.50;;;;;;;;;;5075700;28;20111;-72
2021/06/13 00:30:03;;;;;;;5.82;4.63;;;;;;;;;;5075320;28;20021;-71
2021/06/13 00:32:29;;;;;;;6.10;4.45;;;;;;;;;;5075351;28;20032;-72
2021/06/13 00:34:56;;;;;;;4.85;4.35;;;;;;;;;;5075277;28;20454;-72
2021/06/13 00:37:22;;;;;;;6.47;4.22;;;;;;;;;;5075442;28;20036;-71
2021/06/13 00:39:48;;;;;;;10.75;5.10;;;;;;;;;;5075243;28;20108;-71
2021/06/13 00:42:14;;;;;;;5.20;4.70;;;;;;;;;;5075355;28;20028;-71
2021/06/13 00:44:41;;;;;;;5.97;4.45;;;;;;;;;;5075098;28;20035;-71
2021/06/13 00:47:07;;;;;;;6.28;4.68;;;;;;;;;;5075043;28;20061;-71
2021/06/13 00:49:33;;;;;;;6.28;4.28;;;;;;;;;;5074426;28;20060;-72
2021/06/13 00:51:59;;;;;;;7.53;4.75;;;;;;;;;;5075173;28;20078;-72
2021/06/13 00:54:27;;;;;;;4.97;4.47;;;;;;;;;;5074684;28;20037;-73
2021/06/13 00:56:53;;;;;;;5.72;4.45;;;;;;;;;;5074799;28;20086;-71
2021/06/13 00:59:20;;;;;;;4.70;4.13;;;;;;;;;;5072016;28;20120;-72
2021/06/13 01:01:46;;;;;;;6.55;4.50;;;;;;;;;;5072084;28;20032;-72
2021/06/13 01:04:13;;;;;;;5.28;4.47;;;;;;;;;;5071554;28;20544;-71
2021/06/13 01:06:44;;;;;;;7.25;4.45;;;;;;;;;;5073561;28;20021;-72
2021/06/13 01:09:11;;;;;;;5.18;4.50;;;;;;;;;;5072784;28;20426;-72
2021/06/13 01:11:43;;;;;;;7.50;4.90;;;;;;;;;;5074524;28;20021;-71
2021/06/13 01:14:21;;;;;;;7.22;5.53;;;;;;;;;;5074193;28;20033;-72
2021/06/13 01:16:47;;;;;;;4.65;4.22;;;;;;;;;;5074179;28;20393;-71
2021/06/13 01:19:22;;;;;;;9.00;4.38;;;;;;;;;;5074149;28;20029;-72
2021/06/13 01:21:51;;;;;;;8.40;3.92;;;;;;;;;;5074568;28;20395;-72
2021/06/13 01:24:22;;;;;;;5.25;4.45;;;;;;;;;;5074333;28;20480;-72
2021/06/13 01:27:07;;;;;;;9.23;3.90;;;;;;;;;;5074089;28;20381;-72
2021/06/13 01:29:38;;;;;;;6.93;4.38;;;;;;;;;;5073967;28;20035;-72
2021/06/13 01:32:07;;;;;;;4.22;3.40;;;;;;;;;;5074332;28;20032;-71
2021/06/13 01:34:40;;;;;;;4.75;3.47;;;;;;;;;;5074004;28;20025;-71
2021/06/13 01:37:11;;;;;;;6.30;3.92;;;;;;;;;;5073299;28;20068;-72
2021/06/13 01:39:38;;;;;;;4.73;3.70;;;;;;;;;;5074121;28;20025;-72
2021/06/13 01:42:05;;;;;;;4.43;3.70;;;;;;;;;;5074051;28;20104;-72
2021/06/13 01:44:32;;;;;;;6.68;3.70;;;;;;;;;;5073872;28;20459;-71
2021/06/13 01:47:00;;;;;;;4.10;3.70;;;;;;;;;;5074016;28;20025;-72
2021/06/13 01:49:26;;;;;;;3.90;3.42;;;;;;;;;;5073310;28;20060;-72
2021/06/13 01:51:52;;;;;;;4.05;3.20;;;;;;;;;;5073511;28;20062;-71
2021/06/13 01:54:18;;;;;;;4.00;3.60;;;;;;;;;;5073820;28;20036;-71
2021/06/13 01:56:47;;;;;;;8.90;3.75;;;;;;;;;;5073543;28;20037;-72
2021/06/13 01:59:13;;;;;;;8.50;3.60;;;;;;;;;;5071884;28;20035;-71
2021/06/13 02:01:39;;;;;;;3.95;3.33;;;;;;;;;;5073653;28;20078;-72
2021/06/13 02:04:05;;;;;;;3.95;3.40;;;;;;;;;;5073713;28;20055;-71
2021/06/13 02:06:34;;;;;;;3.95;3.50;;;;;;;;;;5073543;28;20100;-71
2021/06/13 02:09:01;;;;;;;4.55;4.07;;;;;;;;;;5073479;28;20029;-71
2021/06/13 02:11:27;;;;;;;4.78;4.03;;;;;;;;;;5073641;28;20476;-71
2021/06/13 02:13:55;;;;;;;4.18;3.78;;;;;;;;;;5073446;28;20027;-71
2021/06/13 02:16:21;;;;;;;7.40;4.20;;;;;;;;;;5073326;28;20028;-71
2021/06/13 02:18:49;;;;;;;5.68;3.80;;;;;;;;;;5073104;28;20029;-71
2021/06/13 02:21:15;;;;;;;5.63;3.78;;;;;;;;;;5073221;28;20024;-71
2021/06/13 02:23:41;;;;;;;5.63;4.30;;;;;;;;;;5073583;28;20029;-71
2021/06/13 02:26:09;;;;;;;6.00;3.72;;;;;;;;;;5073248;28;20385;-71
2021/06/13 02:28:38;;;;;;;4.40;3.50;;;;;;;;;;5073201;28;20547;-71
2021/06/13 02:31:07;;;;;;;4.32;3.45;;;;;;;;;;5072828;28;20040;-72
2021/06/13 02:33:33;;;;;;;5.18;4.07;;;;;;;;;;5073061;28;20025;-71
2021/06/13 02:36:00;;;;;;;4.70;3.78;;;;;;;;;;5073097;28;20047;-72
2021/06/13 02:38:27;;;;;;;7.50;3.67;;;;;;;;;;5073091;28;20025;-72
2021/06/13 02:40:54;;;;;;;6.00;4.18;;;;;;;;;;5072864;28;20119;-71
2021/06/13 02:43:20;;;;;;;4.38;3.97;;;;;;;;;;5072551;28;20025;-71
2021/06/13 02:45:48;;;;;;;5.43;4.25;;;;;;;;;;5072857;28;20529;-71
2021/06/13 02:48:14;;;;;;;5.35;4.32;;;;;;;;;;5072836;28;20024;-71
2021/06/13 02:50:40;;;;;;;8.48;4.40;;;;;;;;;;5072940;28;20392;-71
2021/06/13 02:53:19;;;;;;;5.53;4.30;;;;;;;;;;5072942;28;20031;-71
2021/06/13 02:55:44;;;;;;;9.23;4.35;;;;;;;;;;5071361;28;20183;-71
2021/06/13 02:58:29;;;;;;;4.88;4.25;;;;;;;;;;5073029;28;20108;-71
2021/06/13 03:00:56;;;;;;;6.30;4.40;;;;;;;;;;5072855;28;20028;-71
2021/06/13 03:03:22;;;;;;;6.85;4.45;;;;;;;;;;5072810;28;20090;-72
2021/06/13 03:05:49;;;;;;;7.45;4.45;;;;;;;;;;5072544;28;20052;-71
2021/06/13 03:08:15;;;;;;;5.80;4.28;;;;;;;;;;5072949;28;20492;-71
2021/06/13 03:10:42;;;;;;;4.90;4.40;;;;;;;;;;5072886;28;20648;-71
2021/06/13 03:13:08;;;;;;;4.80;4.00;;;;;;;;;;5072576;28;20020;-71
2021/06/13 03:15:34;;;;;;;4.13;3.67;;;;;;;;;;5072342;28;20029;-71
2021/06/13 03:18:01;;;;;;;5.07;4.03;;;;;;;;;;5072591;28;20033;-71
2021/06/13 03:20:27;;;;;;;6.22;3.80;;;;;;;;;;5072572;28;20469;-71
2021/06/13 03:22:56;;;;;;;4.78;4.28;;;;;;;;;;5072454;28;20028;-71
2021/06/13 03:25:22;;;;;;;4.90;4.40;;;;;;;;;;5071265;28;20020;-71
2021/06/13 03:27:48;;;;;;;7.72;4.10;;;;;;;;;;5072469;28;20107;-71
2021/06/13 03:30:15;;;;;;;5.35;4.00;;;;;;;;;;5072353;28;20461;-71
2021/06/13 03:32:41;;;;;;;6.72;4.28;;;;;;;;;;5072767;28;20033;-71
2021/06/13 03:35:07;;;;;;;6.80;4.00;;;;;;;;;;5072636;28;20075;-71
2021/06/13 03:37:34;;;;;;;5.28;4.20;;;;;;;;;;5072577;28;20052;-71
2021/06/13 03:40:01;;;;;;;8.73;4.35;;;;;;;;;;5072595;28;20028;-71
2021/06/13 03:42:27;;;;;;;5.00;4.50;;;;;;;;;;5072570;28;20491;-71
2021/06/13 03:44:54;;;;;;;7.20;3.70;;;;;;;;;;5072456;28;20020;-71
2021/06/13 03:47:21;;;;;;;7.03;4.13;;;;;;;;;;5072562;28;20025;-71
2021/06/13 03:49:49;;;;;;;6.05;4.30;;;;;;;;;;5072692;28;20025;-71
2021/06/13 03:52:16;;;;;;;4.57;4.10;;;;;;;;;;5072764;28;20465;-71
2021/06/13 03:54:42;;;;;;;4.55;4.15;;;;;;;;;;5073663;28;20094;-71
2021/06/13 03:57:08;;;;;;;4.22;3.80;;;;;;;;;;5076110;28;20037;-71
2021/06/13 03:59:36;;;;;;;4.68;4.07;;;;;;;;;;5074694;28;20455;-71
2021/06/13 04:02:03;;;;;;;7.30;3.80;;;;;;;;;;5076048;28;20020;-71
2021/06/13 04:04:37;;;;;;;6.13;3.88;;;;;;;;;;5074589;28;20027;-71
2021/06/13 04:07:03;;;;;;;4.57;4.05;;;;;;;;;;5075755;28;20115;-71
2021/06/13 04:09:29;;;;;;;5.03;4.53;;;;;;;;;;5075844;28;20381;-71
2021/06/13 04:11:56;;;;;;;4.88;4.35;;;;;;;;;;5075843;28;20039;-71
2021/06/13 04:14:22;;;;;;;7.68;4.40;;;;;;;;;;5075868;28;20047;-71
2021/06/13 04:16:49;;;;;;;5.70;4.32;;;;;;;;;;5075500;28;20422;-71
2021/06/13 04:19:16;;;;;;;4.70;4.07;;;;;;;;;;5075601;28;20154;-72
2021/06/13 04:21:43;;;;;;;5.18;3.85;;;;;;;;;;5075610;28;20025;-71
2021/06/13 04:24:20;;;;;;;6.63;4.25;;;;;;;;;;5075135;28;20021;-71
2021/06/13 04:26:46;;;;;;;6.45;4.63;;;;;;;;;;5075361;28;20021;-71
2021/06/13 04:29:12;;;;;;;6.82;5.43;;;;;;;;;;5075042;28;20021;-71
2021/06/13 04:31:39;;;;;;;6.93;6.20;;;;;;;;;;5075253;28;20118;-71
2021/06/13 04:34:05;;;;;;;13.00;6.15;;;;;;;;;;5075285;28;20399;-71
2021/06/13 04:36:31;;;;;;;8.98;5.78;;;;;;;;;;5074892;28;20106;-71
2021/06/13 04:38:57;;;;;;;8.05;6.03;;;;;;;;;;5073632;28;20469;-71
2021/06/13 04:41:23;;;;;;;9.57;6.28;;;;;;;;;;5075270;28;20488;-71
2021/06/13 04:43:49;;;;;;;6.63;5.80;;;;;;;;;;5075156;28;20020;-71
2021/06/13 04:46:21;;;;;;;6.65;5.93;;;;;;;;;;5075296;28;20104;-71
2021/06/13 04:48:47;;;;;;;6.95;6.10;;;;;;;;;;5075035;28;20021;-71
2021/06/13 04:51:13;;;;;;;6.65;4.97;;;;;;;;;;5075057;28;20059;-71
2021/06/13 04:53:49;;;;;;;9.98;4.95;;;;;;;;;;5075083;28;20025;-72
2021/06/13 04:56:21;;;;;;;11.40;4.55;;;;;;;;;;5074799;28;20106;-71
2021/06/13 04:58:47;;;;;;;7.28;4.63;;;;;;;;;;5074930;28;20441;-71
2021/06/13 05:01:13;;;;;;;5.18;4.50;;;;;;;;;;5074879;28;20025;-71
2021/06/13 05:03:42;;;;;;;6.22;3.85;;;;;;;;;;5074861;28;20495;-71
2021/06/13 05:06:08;;;;;;;6.45;3.92;;;;;;;;;;5074330;28;20024;-71
2021/06/13 05:08:34;;;;;;;7.03;4.35;;;;;;;;;;5074766;28;20025;-71
2021/06/13 05:11:00;;;;;;;7.13;4.50;;;;;;;;;;5074785;28;20040;-72
2021/06/13 05:13:26;;;;;;;5.70;4.25;;;;;;;;;;5074602;28;20029;-71
2021/06/13 05:15:52;;;;;;;5.05;4.15;;;;;;;;;;5074569;28;20036;-71
2021/06/13 05:18:18;;;;;;;9.43;4.65;;;;;;;;;;5074423;28;20023;-72
2021/06/13 05:20:46;;;;;;;7.80;5.00;;;;;;;;;;5074660;28;20373;-72
2021/06/13 05:23:12;;;;;;;8.90;5.00;;;;;;;;;;5074830;28;20013;-72
2021/06/13 05:25:39;;;;;;;7.60;5.15;;;;;;;;;;5073393;28;20427;-73
2021/06/13 05:28:06;;;;;;;10.75;4.95;;;;;;;;;;5074031;28;20380;-72
2021/06/13 05:30:33;;;;;;;9.05;4.93;;;;;;;;;;5074206;28;20392;-73
2021/06/13 05:33:00;;;;;;;7.82;5.10;;;;;;;;;;5073017;28;20111;-72
2021/06/13 05:35:27;;;;;;;14.15;5.60;;;;;;;;;;5074086;28;20029;-72
2021/06/13 05:37:53;;;;;;;6.55;5.80;;;;;;;;;;5074186;28;20071;-72
2021/06/13 05:40:21;;;;;;;13.88;5.60;;;;;;;;;;5074020;28;20025;-72
2021/06/13 05:42:48;;;;;;;10.13;6.43;;;;;;;;;;5074237;28;20055;-73
2021/06/13 05:45:15;;;;;;;7.45;6.25;;;;;;;;;;5074114;28;20021;-73
2021/06/13 05:47:41;;;;;;;8.50;5.38;;;;;;;;;;5073874;28;20093;-73
2021/06/13 05:50:08;;;;;;;6.63;5.70;;;;;;;;;;5073539;28;20052;-73
2021/06/13 05:52:34;;;;;;;8.80;5.50;;;;;;;;;;5073552;28;20028;-73
2021/06/13 05:55:00;;;;;;;8.18;6.13;;;;;;;;;;5073437;28;20122;-73
2021/06/13 05:57:32;;;;;;;11.02;6.32;;;;;;;;;;5073437;28;20043;-72
2021/06/13 06:00:02;;;;;;;6.15;5.35;;;;;;;;;;5073327;28;20024;-72
2021/06/13 06:02:28;;;;;;;8.38;5.80;;;;;;;;;;5073547;28;20101;-72
2021/06/13 06:04:54;;;;;;;8.25;5.85;;;;;;;;;;5073777;28;20070;-72
2021/06/13 06:07:20;;;;;;;7.30;6.28;;;;;;;;;;5072518;28;20024;-73
2021/06/13 06:09:46;;;;;;;12.07;6.18;;;;;;;;;;5073579;28;20028;-72
2021/06/13 06:12:12;;;;;;;6.20;5.60;;;;;;;;;;5073414;28;20031;-72
2021/06/13 06:14:39;;;;;;;7.78;6.38;;;;;;;;;;5073444;28;20492;-72
2021/06/13 06:17:05;;;;;;;6.60;5.90;;;;;;;;;;5072777;28;20033;-73
2021/06/13 06:19:31;;;;;;;8.95;6.65;;;;;;;;;;5073454;28;20108;-73
2021/06/13 06:21:57;;;;;;;10.50;6.00;;;;;;;;;;5073401;28;20056;-71
2021/06/13 06:24:23;;;;;;;7.85;5.78;;;;;;;;;;5073288;28;20424;-71
2021/06/13 06:26:50;;;;;;;6.85;5.57;;;;;;;;;;5073173;28;20028;-72
2021/06/13 06:29:16;;;;;;;6.30;5.20;;;;;;;;;;5071960;28;20062;-71
2021/06/13 06:31:42;;;;;;;6.82;5.43;;;;;;;;;;5073333;28;20043;-71
2021/06/13 06:34:08;;;;;;;9.18;5.13;;;;;;;;;;5073224;28;20025;-72
2021/06/13 06:36:35;;;;;;;6.93;5.28;;;;;;;;;;5072883;28;20082;-71
2021/06/13 06:39:01;;;;;;;6.90;4.50;;;;;;;;;;5073222;28;20025;-72
2021/06/13 06:41:27;;;;;;;10.05;5.28;;;;;;;;;;5071481;28;20394;-72
2021/06/13 06:43:53;;;;;;;10.85;5.18;;;;;;;;;;5072974;28;20032;-71
2021/06/13 06:46:19;;;;;;;6.95;5.13;;;;;;;;;;5073164;28;20032;-71
2021/06/13 06:48:45;;;;;;;7.65;5.70;;;;;;;;;;5073074;28;20095;-73
2021/06/13 06:51:11;;;;;;;7.38;5.65;;;;;;;;;;5073173;28;20082;-73
2021/06/13 06:53:40;;;;;;;7.88;5.90;;;;;;;;;;5072809;28;20027;-73
2021/06/13 06:56:06;;;;;;;6.93;5.00;;;;;;;;;;5072622;28;20111;-72
2021/06/13 06:58:32;;;;;;;9.43;5.28;;;;;;;;;;5072821;28;20023;-72
2021/06/13 07:00:58;;;;;;;11.73;6.18;;;;;;;;;;5073077;28;20025;-72
2021/06/13 07:03:24;;;;;;;6.90;5.55;;;;;;;;;;5072788;28;20116;-72
2021/06/13 07:05:50;;;;;;;7.57;6.05;;;;;;;;;;5071029;28;20115;-72
2021/06/13 07:08:16;;;;;;;6.28;5.55;;;;;;;;;;5072665;28;20107;-72
2021/06/13 07:10:42;;;;;;;9.07;5.88;;;;;;;;;;5072606;28;20354;-72
2021/06/13 07:13:09;;;;;;;8.88;5.72;;;;;;;;;;5072615;28;20044;-72
2021/06/13 07:15:35;;;;;;;7.60;5.93;;;;;;;;;;5072449;28;20021;-73
2021/06/13 07:18:01;;;;;;;5.93;5.43;;;;;;;;;;5072358;28;20369;-77
2021/06/13 07:20:27;;;;;;;5.88;5.38;;;;;;;;;;5072073;28;20081;-72
2021/06/13 07:22:53;;;;;;;9.13;6.22;;;;;;;;;;5072045;28;20117;-72
2021/06/13 07:25:19;;;;;;;7.40;5.63;;;;;;;;;;5070487;28;20108;-74
2021/06/13 07:27:45;;;;;;;9.10;5.95;;;;;;;;;;5070834;28;20024;-72
2021/06/13 07:30:13;;;;;;;7.07;5.40;;;;;;;;;;5073924;28;20024;-72
2021/06/13 07:32:39;;;;;;;5.75;5.15;;;;;;;;;;5076081;28;20908;-72
2021/06/13 07:35:06;;;;;;;6.85;5.70;;;;;;;;;;5076638;28;20492;-72
2021/06/13 07:37:32;;;;;;;6.97;5.80;;;;;;;;;;5076535;28;20040;-72
2021/06/13 07:39:58;;;;;;;7.25;5.00;;;;;;;;;;5076699;28;20025;-72
2021/06/13 07:42:24;;;;;;;13.02;5.70;;;;;;;;;;5076883;28;20032;-72
2021/06/13 07:44:51;;;;;;;11.43;5.50;;;;;;;;;;5076880;28;20017;-72
2021/06/13 07:47:17;;;;;;;6.13;4.60;;;;;;;;;;5076740;28;20100;-72
2021/06/13 07:49:43;;;;;;;7.60;5.10;;;;;;;;;;5076382;28;20024;-72
2021/06/13 07:52:10;;;;;;;12.93;5.72;;;;;;;;;;5076773;28;20405;-72
2021/06/13 07:54:36;;;;;;;6.38;4.88;;;;;;;;;;5076431;28;20127;-72
2021/06/13 07:57:02;;;;;;;8.05;4.80;;;;;;;;;;5076190;28;20423;-72
2021/06/13 07:59:28;;;;;;;5.10;4.30;;;;;;;;;;5076223;28;20025;-72
2021/06/13 08:01:54;;;;;;;5.72;4.82;;;;;;;;;;5076441;28;20033;-76
2021/06/13 08:04:21;;;;;;;6.13;4.40;;;;;;;;;;5074977;28;20028;-72
2021/06/13 08:06:47;;;;;;;5.03;4.63;;;;;;;;;;5076346;28;20025;-72
2021/06/13 08:09:13;;;;;;;9.40;4.82;;;;;;;;;;5075894;28;20390;-73
2021/06/13 08:11:39;;;;;;;5.95;4.10;;;;;;;;;;5075982;28;20043;-72
2021/06/13 08:14:06;;;;;;;7.60;4.78;;;;;;;;;;5076237;28;20095;-72
2021/06/13 08:16:32;;;;;;;6.55;4.40;;;;;;;;;;5075982;28;20040;-72
2021/06/13 08:18:58;;;;;;;5.10;4.05;;;;;;;;;;5076100;28;20024;-72
2021/06/13 08:21:24;;;;;;;5.97;4.20;;;;;;;;;;5076001;28;20032;-72
2021/06/13 08:23:50;;;;;;;5.72;4.28;;;;;;;;;;5076101;28;20507;-72
2021/06/13 08:26:16;;;;;;;6.95;4.18;;;;;;;;;;5075836;28;20063;-73
2021/06/13 08:28:42;;;;;;;6.18;4.25;;;;;;;;;;5076029;28;20025;-72
2021/06/13 08:31:08;;;;;;;10.60;4.53;;;;;;;;;;5074603;28;20473;-72
2021/06/13 08:33:34;;;;;;;5.72;4.20;;;;;;;;;;5076532;28;20108;-73
2021/06/13 08:36:00;;;;;;;6.75;4.38;;;;;;;;;;5075723;28;20040;-73
2021/06/13 08:38:26;;;;;;;6.32;4.30;;;;;;;;;;5075636;28;20032;-73
2021/06/13 08:40:52;;;;;;;9.85;4.32;;;;;;;;;;5074670;28;20029;-73
2021/06/13 08:43:19;;;;;;;5.10;4.38;;;;;;;;;;5075632;28;20024;-74
2021/06/13 08:45:45;;;;;;;4.45;3.92;;;;;;;;;;5075577;28;20020;-73
2021/06/13 08:48:11;;;;;;;5.43;3.70;;;;;;;;;;5075315;28;20107;-73
2021/06/13 08:50:38;;;;;;;6.55;4.15;;;;;;;;;;5075420;28;20017;-73
2021/06/13 08:53:05;;;;;;;6.47;4.30;;;;;;;;;;5075455;28;20031;-73
2021/06/13 08:55:32;;;;;;;5.13;4.30;;;;;;;;;;5073968;28;20055;-73
2021/06/13 08:57:58;;;;;;;5.30;3.70;;;;;;;;;;5075387;28;20026;-73
2021/06/13 09:00:30;;;;;;;10.77;4.72;;;;;;;;;;5075118;28;20021;-73
2021/06/13 09:02:57;;;;;;;6.03;3.88;;;;;;;;;;5075384;28;20488;-73
2021/06/13 09:05:24;;;;;;;5.20;3.95;;;;;;;;;;5075278;28;20021;-73
2021/06/13 09:08:00;;;;;;;4.20;3.80;;;;;;;;;;5075377;28;20504;-73
2021/06/13 09:10:28;;;;;;;6.55;4.15;;;;;;;;;;5075191;28;20026;-73
2021/06/13 09:13:11;;;;;;;5.35;3.38;;;;;;;;;;5075387;28;20540;-73
2021/06/13 09:15:47;;;;;;;4.80;3.80;;;;;;;;;;5075161;28;20025;-73
2021/06/13 09:18:32;;;;;;;4.45;4.05;;;;;;;;;;5073741;28;20035;-73
2021/06/13 09:20:59;;;;;;;4.80;3.50;;;;;;;;;;5075068;28;20453;-73
2021/06/13 09:23:27;;;;;;;3.65;3.20;;;;;;;;;;5074906;28;20025;-73
2021/06/13 09:26:04;;;;;;;5.97;3.72;;;;;;;;;;5074896;28;20033;-73
2021/06/13 09:28:34;;;;;;;4.90;3.33;;;;;;;;;;5074776;28;20031;-75
2021/06/13 09:31:00;;;;;;;4.93;3.50;;;;;;;;;;5074760;28;20074;-73
2021/06/13 09:33:30;;;;;;;3.40;3.10;;;;;;;;;;5074701;28;20025;-73
2021/06/13 09:35:57;;;;;;;3.30;2.97;;;;;;;;;;5074588;28;20029;-73
2021/06/13 09:38:28;;;;;;;9.40;3.08;;;;;;;;;;5074764;28;20052;-72
2021/06/13 09:40:54;;;;;;;8.15;3.58;;;;;;;;;;5074577;28;20099;-73
2021/06/13 09:43:21;;;;;;;3.95;3.28;;;;;;;;;;5074401;28;20024;-73
2021/06/13 09:45:49;;;;;;;4.22;3.38;;;;;;;;;;5074561;28;20103;-73
2021/06/13 09:48:15;;;;;;;5.85;2.95;;;;;;;;;;5073091;28;20055;-73
2021/06/13 09:50:44;;;;;;;4.90;3.40;;;;;;;;;;5074469;28;20032;-72
2021/06/13 09:53:30;;;;;;;4.50;3.13;;;;;;;;;;5074161;28;20473;-73
2021/06/13 09:56:07;;;;;;;5.57;3.60;;;;;;;;;;5074128;28;20037;-73
2021/06/13 09:58:34;;;;;;;4.05;3.45;;;;;;;;;;5074425;28;20472;-73
2021/06/13 10:01:07;;;;;;;8.57;3.30;;;;;;;;;;5074118;28;20095;-73
2021/06/13 10:03:37;;;;;;;3.30;3.00;;;;;;;;;;5074116;28;20033;-73
2021/06/13 10:06:03;;;;;;;7.07;3.03;;;;;;;;;;5073909;28;20028;-73
2021/06/13 10:08:29;;;;;;;11.52;3.20;;;;;;;;;;5074195;28;20134;-73
2021/06/13 10:10:58;;;;;;;5.78;2.88;;;;;;;;;;5073995;28;20052;-73
2021/06/13 10:13:42;;;;;;;3.78;3.03;;;;;;;;;;5074023;28;20033;-73
2021/06/13 10:16:10;;;;;;;3.50;3.00;;;;;;;;;;5072975;28;20048;-73
2021/06/13 10:18:39;;;;;;;4.85;2.88;;;;;;;;;;5072882;28;20357;-73
2021/06/13 10:21:14;;;;;;;5.78;3.15;;;;;;;;;;5071838;28;20033;-73
2021/06/13 10:23:41;;;;;;;11.82;3.97;;;;;;;;;;5069731;28;20029;-72
2021/06/13 10:26:08;;;;;;;5.45;3.13;;;;;;;;;;5068745;28;20029;-73
2021/06/13 10:28:35;;;;;;;5.60;2.80;;;;;;;;;;5070438;28;20033;-73
2021/06/13 10:31:02;;;;;;;7.82;3.35;;;;;;;;;;5073114;28;20029;-73
2021/06/13 10:33:28;;;;;;;4.05;2.83;;;;;;;;;;5073287;28;20067;-73
2021/06/13 10:36:01;;;;;;;8.93;3.22;;;;;;;;;;5073411;28;20033;-73
2021/06/13 10:38:27;;;;;;;7.18;2.97;;;;;;;;;;5071285;28;20024;-72
2021/06/13 10:40:53;;;;;;;5.45;2.78;;;;;;;;;;5070385;28;20024;-73
2021/06/13 10:43:24;;;;;;;7.57;3.10;;;;;;;;;;5070275;28;20093;-72
2021/06/13 10:45:51;;;;;;;8.15;3.15;;;;;;;;;;5072339;28;20035;-73
2021/06/13 10:48:17;;;;;;;3.53;3.20;;;;;;;;;;5073032;28;20028;-73
2021/06/13 10:50:44;;;;;;;7.97;2.88;;;;;;;;;;5072878;28;20031;-73
2021/06/13 10:53:11;;;;;;;7.88;3.97;;;;;;;;;;5072495;28;20112;-72
2021/06/13 10:55:46;;;;;;;5.78;2.90;;;;;;;;;;5072783;28;20493;-74
2021/06/13 10:58:12;;;;;;;4.72;2.80;;;;;;;;;;5073065;28;20111;-72
2021/06/13 11:00:38;;;;;;;6.40;2.70;;;;;;;;;;5072639;28;20024;-73
2021/06/13 11:03:04;;;;;;;4.50;3.03;;;;;;;;;;5072602;28;20070;-73
2021/06/13 11:05:36;;;;;;;3.22;2.90;;;;;;;;;;5072961;28;20048;-72
2021/06/13 11:08:02;;;;;;;7.35;2.95;;;;;;;;;;5072277;28;20085;-71
2021/06/13 11:10:31;;;;;;;6.43;3.00;;;;;;;;;;5073053;28;20365;-72
2021/06/13 11:13:01;;;;;;;5.75;2.67;;;;;;;;;;5072949;28;20033;-72
2021/06/13 11:15:31;;;;;;;3.22;2.90;;;;;;;;;;5072513;28;20465;-78
2021/06/13 11:18:00;;;;;;;4.18;2.50;;;;;;;;;;5072634;28;20032;-72
2021/06/13 11:23:05;;;;;;;4.40;2.78;;;;;;;;;;5070146;28;20028;-73
2021/06/13 11:25:31;;;;;;;6.97;2.70;;;;;;;;;;5069861;28;20469;-73
2021/06/13 11:28:09;;;;;;;7.07;2.97;;;;;;;;;;5072790;28;20105;-73
2021/06/13 11:30:40;;;;;;;2.65;2.45;;;;;;;;;;5072977;28;20473;-73
2021/06/13 11:33:06;;;;;;;5.95;3.20;;;;;;;;;;5072727;28;20381;-73
2021/06/13 11:35:37;;;;;;;3.05;2.50;;;;;;;;;;5072649;28;20046;-73
2021/06/13 11:38:09;;;;;;;4.00;2.87;;;;;;;;;;5072759;28;20028;-73
2021/06/13 11:40:54;;;;;;;3.65;2.90;;;;;;;;;;5072645;28;20747;-73
2021/06/13 11:43:21;;;;;;;2.75;2.55;;;;;;;;;;5072410;28;20055;-73
2021/06/13 11:46:13;;;;;;;5.63;2.63;;;;;;;;;;5072625;28;20384;-73
2021/06/13 11:48:50;;;;;;;2.55;2.17;;;;;;;;;;5071355;28;20033;-73
2021/06/13 11:51:18;;;;;;;2.95;2.38;;;;;;;;;;5072852;28;20032;-73
2021/06/13 11:53:50;;;;;;;2.83;2.50;;;;;;;;;;5072489;28;20082;-73
2021/06/13 11:56:39;;;;;;;5.35;2.58;;;;;;;;;;5072177;28;20186;-73
2021/06/13 11:59:09;;;;;;;3.80;2.80;;;;;;;;;;5072362;28;20017;-73
2021/06/13 12:01:37;;;;;;;3.80;2.70;;;;;;;;;;5072387;28;20028;-73
2021/06/13 12:04:07;;;;;;;7.28;2.90;;;;;;;;;;5072255;28;20025;-73
2021/06/13 12:06:35;;;;;;;9.73;2.72;;;;;;;;;;5072525;28;20025;-73
2021/06/13 12:09:05;;;;;;;4.65;2.70;;;;;;;;;;5072236;28;20063;-73
2021/06/13 12:11:32;;;;;;;3.90;3.00;;;;;;;;;;5072348;28;20027;-73
2021/06/13 12:13:59;;;;;;;5.20;2.58;;;;;;;;;;5072399;28;20035;-74
2021/06/13 12:16:27;;;;;;;4.78;2.83;;;;;;;;;;5074579;28;20108;-73
2021/06/13 12:19:04;;;;;;;5.70;2.42;;;;;;;;;;5075042;28;20042;-74
2021/06/13 12:21:31;;;;;;;2.60;2.30;;;;;;;;;;5074949;28;20028;-74
2021/06/13 12:24:10;;;;;;;3.60;2.83;;;;;;;;;;5074639;28;20443;-73
2021/06/13 12:29:27;;;;;;;2.90;2.60;;;;;;;;;;5074553;28;20036;-73
2021/06/13 12:31:54;;;;;;;5.35;2.70;;;;;;;;;;5075664;28;20032;-72
2021/06/13 12:34:21;;;;;;;4.40;2.78;;;;;;;;;;5075860;28;20023;-73
2021/06/13 12:36:54;;;;;;;5.63;2.90;;;;;;;;;;5075382;28;20086;-73
2021/06/13 12:39:28;;;;;;;6.05;2.45;;;;;;;;;;5075470;28;20013;-73
2021/06/13 12:42:07;;;;;;;4.68;2.70;;;;;;;;;;5075373;28;20388;-73
2021/06/13 12:44:33;;;;;;;5.85;2.40;;;;;;;;;;5075485;28;20024;-73
2021/06/13 12:46:59;;;;;;;4.03;2.35;;;;;;;;;;5075089;28;20074;-73
2021/06/13 12:49:25;;;;;;;5.60;2.38;;;;;;;;;;5074995;28;20258;-73
2021/06/13 12:51:51;;;;;;;3.70;3.08;;;;;;;;;;5074022;28;20024;-74
2021/06/13 12:54:17;;;;;;;5.68;2.88;;;;;;;;;;5074102;28;20031;-73
2021/06/13 12:56:44;;;;;;;5.30;2.50;;;;;;;;;;5074545;28;20373;-73
2021/06/13 12:59:11;;;;;;;5.80;2.33;;;;;;;;;;5075200;28;20017;-73
2021/06/13 13:01:41;;;;;;;5.63;2.30;;;;;;;;;;5075282;28;20538;-73
2021/06/13 13:04:07;;;;;;;3.30;2.70;;;;;;;;;;5075241;28;20025;-73
2021/06/13 13:06:47;;;;;;;5.22;2.53;;;;;;;;;;5075318;28;20070;-73
2021/06/13 13:09:13;;;;;;;4.18;2.53;;;;;;;;;;5075117;28;20027;-73
2021/06/13 13:11:43;;;;;;;7.35;2.58;;;;;;;;;;5075041;28;20505;-73
2021/06/13 13:14:09;;;;;;;3.95;2.28;;;;;;;;;;5074918;28;20020;-73
2021/06/13 13:16:37;;;;;;;3.58;2.60;;;;;;;;;;5075218;28;20044;-73
2021/06/13 13:19:05;;;;;;;3.75;1.95;;;;;;;;;;5074964;28;20385;-73
2021/06/13 13:21:39;;;;;;;4.00;2.55;;;;;;;;;;5074943;28;20464;-73
2021/06/13 13:24:08;;;;;;;5.60;2.50;;;;;;;;;;5074911;28;20032;-73
2021/06/13 13:26:34;;;;;;;5.55;2.65;;;;;;;;;;5074234;28;20103;-73
2021/06/13 13:29:00;;;;;;;3.50;2.28;;;;;;;;;;5074941;28;20032;-73
2021/06/13 13:31:27;;;;;;;3.10;2.45;;;;;;;;;;5074372;28;20020;-73
2021/06/13 13:33:56;;;;;;;4.22;2.30;;;;;;;;;;5074314;28;20472;-73
2021/06/13 13:36:30;;;;;;;4.63;2.60;;;;;;;;;;5074538;28;20036;-73
2021/06/13 13:38:56;;;;;;;3.45;2.80;;;;;;;;;;5074903;28;20082;-72
2021/06/13 13:41:23;;;;;;;4.63;2.88;;;;;;;;;;5074597;28;20028;-73
2021/06/13 13:43:55;;;;;;;4.25;2.88;;;;;;;;;;5075004;28;20104;-73
2021/06/13 13:46:26;;;;;;;6.03;3.15;;;;;;;;;;5074595;28;20031;-73
2021/06/13 13:48:53;;;;;;;2.72;2.53;;;;;;;;;;5073908;28;20114;-77
2021/06/13 13:51:19;;;;;;;5.15;2.90;;;;;;;;;;5074065;28;20460;-74
2021/06/13 13:53:48;;;;;;;4.10;2.72;;;;;;;;;;5073987;28;20024;-76
2021/06/13 13:56:19;;;;;;;4.47;2.50;;;;;;;;;;5073746;28;20485;-73
2021/06/13 13:58:46;;;;;;;3.53;2.72;;;;;;;;;;5070317;28;20021;-73
2021/06/13 14:01:13;;;;;;;6.90;2.60;;;;;;;;;;5070776;28;20016;-75
2021/06/13 14:03:39;;;;;;;6.18;2.80;;;;;;;;;;5070497;28;20020;-73
2021/06/13 14:06:06;;;;;;;3.15;2.63;;;;;;;;;;5073677;28;20082;-73
2021/06/13 14:08:42;;;;;;;3.88;2.70;;;;;;;;;;5073741;28;20318;-76
2021/06/13 14:11:09;;;;;;;4.15;2.80;;;;;;;;;;5072531;28;20028;-73
2021/06/13 14:13:35;;;;;;;3.10;2.80;;;;;;;;;;5073537;28;20017;-72
2021/06/13 14:16:01;;;;;;;3.65;2.42;;;;;;;;;;5073806;28;20044;-73
2021/06/13 14:18:27;;;;;;;3.35;2.58;;;;;;;;;;5073372;28;20021;-74
2021/06/13 14:20:53;;;;;;;3.10;2.80;;;;;;;;;;5073331;28;20032;-73
2021/06/13 14:23:19;;;;;;;3.40;3.10;;;;;;;;;;5073608;28;20024;-73
2021/06/13 14:25:45;;;;;;;4.97;3.20;;;;;;;;;;5073683;28;20033;-73
2021/06/13 14:28:11;;;;;;;5.18;3.03;;;;;;;;;;5073287;28;20392;-73
2021/06/13 14:30:37;;;;;;;7.00;3.50;;;;;;;;;;5073271;28;20441;-73
2021/06/13 14:33:04;;;;;;;4.00;3.10;;;;;;;;;;5073531;28;20024;-73
2021/06/13 14:35:30;;;;;;;3.47;3.17;;;;;;;;;;5073365;28;20444;-73
2021/06/13 14:37:57;;;;;;;4.03;3.25;;;;;;;;;;5072532;28;20051;-73
2021/06/13 14:40:23;;;;;;;6.38;3.85;;;;;;;;;;5073169;28;20029;-73
2021/06/13 14:42:49;;;;;;;10.98;3.60;;;;;;;;;;5072968;28;20456;-73
2021/06/13 14:45:15;;;;;;;6.50;3.20;;;;;;;;;;5073249;28;20052;-73
2021/06/13 14:47:42;;;;;;;3.75;3.45;;;;;;;;;;5073260;28;20414;-74
2021/06/13 14:50:08;;;;;;;5.25;4.32;;;;;;;;;;5073078;28;20024;-74
2021/06/13 14:52:35;;;;;;;6.03;4.10;;;;;;;;;;5073258;28;20025;-74